Terminal Aerodrome Forecast
Issued by NWS Sioux Falls, SD

Home | Current Version | Previous Version | Graphics & Text | Print | Product List | Glossary Off
Versions: 1 2 3 4 5 6 7 8 9 10 11 12 13 14 15 16 17 18

000
FTUS43 KFSD 260532
TAFFSD
TAF
KFSD 260532Z 2606/2706 11006KT 1SM -SN OVC005
      TEMPO 2606/2608 3SM -SN OVC010
     FM260800 28007KT P6SM OVC015
     FM261000 35018G25KT P6SM OVC015
     FM261400 35020G30KT P6SM OVC015
     FM262000 34017G25KT P6SM SCT015
     FM270000 34009KT P6SM BKN030=

USA.gov is the U.S. government's official web portal to all federal, state and local government web resources and services.